sensor_id;sensor_type;location;lat;lon;timestamp;P1;durP1;ratioP1;P2;durP2;ratioP2
19554;SDS011;9924;50.828;6.440;2023-04-03T00:02:08;5.00;;;2.20;;
19554;SDS011;9924;50.828;6.440;2023-04-03T00:04:52;4.37;;;2.33;;
19554;SDS011;9924;50.828;6.440;2023-04-03T00:07:36;6.13;;;2.10;;
19554;SDS011;9924;50.828;6.440;2023-04-03T00:10:21;3.90;;;1.70;;
19554;SDS011;9924;50.828;6.440;2023-04-03T00:13:06;4.00;;;1.57;;
19554;SDS011;9924;50.828;6.440;2023-04-03T00:15:51;3.53;;;2.10;;
19554;SDS011;9924;50.828;6.440;2023-04-03T00:18:36;1.93;;;1.50;;
19554;SDS011;9924;50.828;6.440;2023-04-03T00:21:21;3.60;;;1.83;;
19554;SDS011;9924;50.828;6.440;2023-04-03T00:24:06;5.73;;;1.97;;
19554;SDS011;9924;50.828;6.440;2023-04-03T00:26:50;2.57;;;1.80;;
19554;SDS011;9924;50.828;6.440;2023-04-03T00:29:34;4.33;;;2.10;;
19554;SDS011;9924;50.828;6.440;2023-04-03T00:32:19;3.20;;;2.17;;
19554;SDS011;9924;50.828;6.440;2023-04-03T00:35:04;6.57;;;2.43;;
19554;SDS011;9924;50.828;6.440;2023-04-03T00:37:50;3.23;;;2.20;;
19554;SDS011;9924;50.828;6.440;2023-04-03T00:40:36;3.90;;;2.10;;
19554;SDS011;9924;50.828;6.440;2023-04-03T00:43:22;8.83;;;2.23;;
19554;SDS011;9924;50.828;6.440;2023-04-03T00:46:08;4.27;;;2.20;;
19554;SDS011;9924;50.828;6.440;2023-04-03T00:48:52;3.80;;;2.57;;
19554;SDS011;9924;50.828;6.440;2023-04-03T00:51:37;4.43;;;2.47;;
19554;SDS011;9924;50.828;6.440;2023-04-03T00:54:21;4.40;;;2.13;;
19554;SDS011;9924;50.828;6.440;2023-04-03T00:57:06;3.83;;;1.97;;
19554;SDS011;9924;50.828;6.440;2023-04-03T00:59:54;5.87;;;3.27;;
19554;SDS011;9924;50.828;6.440;2023-04-03T01:02:43;3.33;;;2.37;;
19554;SDS011;9924;50.828;6.440;2023-04-03T01:05:28;4.10;;;2.43;;
19554;SDS011;9924;50.828;6.440;2023-04-03T01:08:13;3.37;;;2.27;;
19554;SDS011;9924;50.828;6.440;2023-04-03T01:10:57;3.00;;;2.20;;
19554;SDS011;9924;50.828;6.440;2023-04-03T01:13:44;5.10;;;2.43;;
19554;SDS011;9924;50.828;6.440;2023-04-03T01:16:29;5.63;;;2.30;;
19554;SDS011;9924;50.828;6.440;2023-04-03T01:19:15;2.67;;;1.80;;
19554;SDS011;9924;50.828;6.440;2023-04-03T01:22:13;5.77;;;2.37;;
19554;SDS011;9924;50.828;6.440;2023-04-03T01:25:03;4.93;;;2.50;;
19554;SDS011;9924;50.828;6.440;2023-04-03T01:27:47;5.27;;;2.37;;
19554;SDS011;9924;50.828;6.440;2023-04-03T01:30:33;3.73;;;2.00;;
19554;SDS011;9924;50.828;6.440;2023-04-03T01:33:20;4.23;;;2.13;;
19554;SDS011;9924;50.828;6.440;2023-04-03T01:36:05;3.40;;;1.97;;
19554;SDS011;9924;50.828;6.440;2023-04-03T01:38:51;5.63;;;2.20;;
19554;SDS011;9924;50.828;6.440;2023-04-03T01:41:36;5.77;;;1.90;;
19554;SDS011;9924;50.828;6.440;2023-04-03T01:44:21;5.20;;;2.20;;
19554;SDS011;9924;50.828;6.440;2023-04-03T01:47:05;5.47;;;2.20;;
19554;SDS011;9924;50.828;6.440;2023-04-03T01:49:51;5.03;;;2.23;;
19554;SDS011;9924;50.828;6.440;2023-04-03T01:52:35;5.27;;;2.40;;
19554;SDS011;9924;50.828;6.440;2023-04-03T01:55:19;5.53;;;1.87;;
19554;SDS011;9924;50.828;6.440;2023-04-03T01:58:04;3.80;;;2.20;;
19554;SDS011;9924;50.828;6.440;2023-04-03T02:00:48;6.03;;;2.23;;
19554;SDS011;9924;50.828;6.440;2023-04-03T02:03:33;6.03;;;3.37;;
19554;SDS011;9924;50.828;6.440;2023-04-03T02:06:17;4.13;;;2.30;;
19554;SDS011;9924;50.828;6.440;2023-04-03T02:09:02;5.20;;;2.23;;
19554;SDS011;9924;50.828;6.440;2023-04-03T02:11:47;7.60;;;2.83;;
19554;SDS011;9924;50.828;6.440;2023-04-03T02:14:31;11.80;;;2.90;;
19554;SDS011;9924;50.828;6.440;2023-04-03T02:17:16;7.30;;;2.53;;
19554;SDS011;9924;50.828;6.440;2023-04-03T02:20:00;8.10;;;3.03;;
19554;SDS011;9924;50.828;6.440;2023-04-03T02:22:44;4.60;;;2.50;;
19554;SDS011;9924;50.828;6.440;2023-04-03T02:25:30;6.43;;;3.10;;
19554;SDS011;9924;50.828;6.440;2023-04-03T02:28:15;6.70;;;3.10;;
19554;SDS011;9924;50.828;6.440;2023-04-03T02:30:59;8.63;;;3.00;;
19554;SDS011;9924;50.828;6.440;2023-04-03T02:33:44;5.00;;;2.80;;
19554;SDS011;9924;50.828;6.440;2023-04-03T02:36:29;5.13;;;3.03;;
19554;SDS011;9924;50.828;6.440;2023-04-03T02:39:13;6.40;;;2.93;;
19554;SDS011;9924;50.828;6.440;2023-04-03T02:41:57;5.27;;;3.23;;
19554;SDS011;9924;50.828;6.440;2023-04-03T02:44:42;8.03;;;3.53;;
19554;SDS011;9924;50.828;6.440;2023-04-03T02:47:27;7.20;;;3.10;;
19554;SDS011;9924;50.828;6.440;2023-04-03T02:50:11;5.77;;;3.60;;
19554;SDS011;9924;50.828;6.440;2023-04-03T02:52:55;8.70;;;3.67;;
19554;SDS011;9924;50.828;6.440;2023-04-03T02:55:40;5.77;;;3.67;;
19554;SDS011;9924;50.828;6.440;2023-04-03T02:58:24;10.00;;;4.10;;
19554;SDS011;9924;50.828;6.440;2023-04-03T03:01:09;6.30;;;3.57;;
19554;SDS011;9924;50.828;6.440;2023-04-03T03:03:54;5.93;;;3.70;;
19554;SDS011;9924;50.828;6.440;2023-04-03T03:06:38;8.03;;;4.57;;
19554;SDS011;9924;50.828;6.440;2023-04-03T03:09:24;8.20;;;4.27;;
19554;SDS011;9924;50.828;6.440;2023-04-03T03:12:09;12.50;;;4.27;;
19554;SDS011;9924;50.828;6.440;2023-04-03T03:14:53;7.70;;;4.80;;
19554;SDS011;9924;50.828;6.440;2023-04-03T03:17:38;8.10;;;4.37;;
19554;SDS011;9924;50.828;6.440;2023-04-03T03:20:22;7.43;;;4.50;;
19554;SDS011;9924;50.828;6.440;2023-04-03T03:23:06;11.93;;;4.30;;
19554;SDS011;9924;50.828;6.440;2023-04-03T03:25:57;8.53;;;4.57;;
19554;SDS011;9924;50.828;6.440;2023-04-03T03:28:45;9.53;;;4.97;;
19554;SDS011;9924;50.828;6.440;2023-04-03T03:31:30;8.30;;;4.37;;
19554;SDS011;9924;50.828;6.440;2023-04-03T03:34:14;11.97;;;4.83;;
19554;SDS011;9924;50.828;6.440;2023-04-03T03:36:59;10.23;;;4.53;;
19554;SDS011;9924;50.828;6.440;2023-04-03T03:39:43;8.97;;;4.90;;
19554;SDS011;9924;50.828;6.440;2023-04-03T03:42:28;11.23;;;5.77;;
19554;SDS011;9924;50.828;6.440;2023-04-03T03:45:13;12.07;;;5.40;;
19554;SDS011;9924;50.828;6.440;2023-04-03T03:47:57;8.97;;;5.53;;
19554;SDS011;9924;50.828;6.440;2023-04-03T03:50:42;9.93;;;5.80;;
19554;SDS011;9924;50.828;6.440;2023-04-03T03:53:26;8.53;;;5.47;;
19554;SDS011;9924;50.828;6.440;2023-04-03T03:56:11;11.27;;;5.27;;
19554;SDS011;9924;50.828;6.440;2023-04-03T03:58:55;7.53;;;4.60;;
19554;SDS011;9924;50.828;6.440;2023-04-03T04:01:40;7.03;;;4.13;;
19554;SDS011;9924;50.828;6.440;2023-04-03T04:04:25;7.53;;;4.10;;
19554;SDS011;9924;50.828;6.440;2023-04-03T04:07:10;6.47;;;4.30;;
19554;SDS011;9924;50.828;6.440;2023-04-03T04:09:54;7.40;;;4.23;;
19554;SDS011;9924;50.828;6.440;2023-04-03T04:12:39;9.53;;;4.70;;
19554;SDS011;9924;50.828;6.440;2023-04-03T04:15:23;12.43;;;5.47;;
19554;SDS011;9924;50.828;6.440;2023-04-03T04:18:09;8.20;;;5.20;;
19554;SDS011;9924;50.828;6.440;2023-04-03T04:20:55;16.40;;;5.83;;
19554;SDS011;9924;50.828;6.440;2023-04-03T04:23:39;10.93;;;5.17;;
19554;SDS011;9924;50.828;6.440;2023-04-03T04:26:23;14.80;;;5.53;;
19554;SDS011;9924;50.828;6.440;2023-04-03T04:29:09;14.27;;;5.70;;
19554;SDS011;9924;50.828;6.440;2023-04-03T04:31:53;13.53;;;6.07;;
19554;SDS011;9924;50.828;6.440;2023-04-03T04:34:37;13.37;;;5.90;;
19554;SDS011;9924;50.828;6.440;2023-04-03T04:37:22;12.93;;;5.60;;
19554;SDS011;9924;50.828;6.440;2023-04-03T04:40:06;8.03;;;5.37;;
19554;SDS011;9924;50.828;6.440;2023-04-03T04:42:51;11.63;;;5.00;;
19554;SDS011;9924;50.828;6.440;2023-04-03T04:45:35;7.77;;;4.77;;
19554;SDS011;9924;50.828;6.440;2023-04-03T04:48:20;13.87;;;5.03;;
19554;SDS011;9924;50.828;6.440;2023-04-03T04:51:04;12.57;;;5.40;;
19554;SDS011;9924;50.828;6.440;2023-04-03T04:53:49;6.47;;;4.80;;
19554;SDS011;9924;50.828;6.440;2023-04-03T04:56:33;11.97;;;4.60;;
19554;SDS011;9924;50.828;6.440;2023-04-03T04:59:17;10.80;;;5.30;;
19554;SDS011;9924;50.828;6.440;2023-04-03T05:02:02;11.97;;;4.80;;
19554;SDS011;9924;50.828;6.440;2023-04-03T05:04:46;8.20;;;4.70;;
19554;SDS011;9924;50.828;6.440;2023-04-03T05:07:34;10.60;;;5.07;;
19554;SDS011;9924;50.828;6.440;2023-04-03T05:10:19;10.23;;;4.60;;
19554;SDS011;9924;50.828;6.440;2023-04-03T05:13:04;7.40;;;4.87;;
19554;SDS011;9924;50.828;6.440;2023-04-03T05:15:48;9.37;;;4.83;;
19554;SDS011;9924;50.828;6.440;2023-04-03T05:18:32;10.13;;;5.53;;
19554;SDS011;9924;50.828;6.440;2023-04-03T05:21:17;8.47;;;4.90;;
19554;SDS011;9924;50.828;6.440;2023-04-03T05:24:02;10.83;;;5.07;;
19554;SDS011;9924;50.828;6.440;2023-04-03T05:26:47;10.23;;;5.17;;
19554;SDS011;9924;50.828;6.440;2023-04-03T05:29:31;8.00;;;5.13;;
19554;SDS011;9924;50.828;6.440;2023-04-03T05:32:15;8.80;;;4.50;;
19554;SDS011;9924;50.828;6.440;2023-04-03T05:35:00;8.87;;;5.30;;
19554;SDS011;9924;50.828;6.440;2023-04-03T05:37:44;7.23;;;5.10;;
19554;SDS011;9924;50.828;6.440;2023-04-03T05:40:29;6.57;;;5.27;;
19554;SDS011;9924;50.828;6.440;2023-04-03T05:43:13;6.70;;;4.87;;
19554;SDS011;9924;50.828;6.440;2023-04-03T05:45:58;12.30;;;5.80;;
19554;SDS011;9924;50.828;6.440;2023-04-03T05:48:43;11.07;;;6.00;;
19554;SDS011;9924;50.828;6.440;2023-04-03T05:51:29;7.87;;;5.73;;
19554;SDS011;9924;50.828;6.440;2023-04-03T05:54:24;9.30;;;5.77;;
19554;SDS011;9924;50.828;6.440;2023-04-03T05:57:09;11.27;;;5.90;;
19554;SDS011;9924;50.828;6.440;2023-04-03T05:59:55;11.17;;;6.10;;
19554;SDS011;9924;50.828;6.440;2023-04-03T06:02:40;8.70;;;6.17;;
19554;SDS011;9924;50.828;6.440;2023-04-03T06:05:25;8.97;;;5.70;;
19554;SDS011;9924;50.828;6.440;2023-04-03T06:08:09;10.50;;;6.33;;
19554;SDS011;9924;50.828;6.440;2023-04-03T06:10:54;11.50;;;6.77;;
19554;SDS011;9924;50.828;6.440;2023-04-03T06:13:38;15.80;;;6.77;;
19554;SDS011;9924;50.828;6.440;2023-04-03T06:16:22;9.30;;;6.10;;
19554;SDS011;9924;50.828;6.440;2023-04-03T06:19:08;8.73;;;5.70;;
19554;SDS011;9924;50.828;6.440;2023-04-03T06:21:53;7.87;;;4.57;;
19554;SDS011;9924;50.828;6.440;2023-04-03T06:24:38;7.57;;;5.33;;
19554;SDS011;9924;50.828;6.440;2023-04-03T06:27:22;9.10;;;4.53;;
19554;SDS011;9924;50.828;6.440;2023-04-03T06:30:07;8.17;;;4.70;;
19554;SDS011;9924;50.828;6.440;2023-04-03T06:32:52;9.03;;;4.70;;
19554;SDS011;9924;50.828;6.440;2023-04-03T06:35:40;7.03;;;4.37;;
19554;SDS011;9924;50.828;6.440;2023-04-03T06:38:25;12.77;;;4.00;;
19554;SDS011;9924;50.828;6.440;2023-04-03T06:41:09;9.47;;;3.90;;
19554;SDS011;9924;50.828;6.440;2023-04-03T06:43:54;6.83;;;4.00;;
19554;SDS011;9924;50.828;6.440;2023-04-03T06:46:42;7.90;;;3.83;;
19554;SDS011;9924;50.828;6.440;2023-04-03T06:49:33;7.50;;;3.40;;
19554;SDS011;9924;50.828;6.440;2023-04-03T06:52:18;9.50;;;3.40;;
19554;SDS011;9924;50.828;6.440;2023-04-03T06:55:02;21.20;;;9.17;;
19554;SDS011;9924;50.828;6.440;2023-04-03T06:57:47;71.00;;;30.57;;
19554;SDS011;9924;50.828;6.440;2023-04-03T07:00:31;15.10;;;5.80;;
19554;SDS011;9924;50.828;6.440;2023-04-03T07:03:17;14.60;;;5.37;;
19554;SDS011;9924;50.828;6.440;2023-04-03T07:06:05;23.90;;;8.23;;
19554;SDS011;9924;50.828;6.440;2023-04-03T07:08:51;31.73;;;8.05;;
19554;SDS011;9924;50.828;6.440;2023-04-03T07:11:36;15.40;;;5.40;;
19554;SDS011;9924;50.828;6.440;2023-04-03T07:14:20;14.63;;;5.80;;
19554;SDS011;9924;50.828;6.440;2023-04-03T07:17:05;6.40;;;3.50;;
19554;SDS011;9924;50.828;6.440;2023-04-03T07:19:50;6.53;;;2.88;;
19554;SDS011;9924;50.828;6.440;2023-04-03T07:22:37;9.27;;;2.70;;
19554;SDS011;9924;50.828;6.440;2023-04-03T07:25:21;5.35;;;2.38;;
19554;SDS011;9924;50.828;6.440;2023-04-03T07:28:06;6.45;;;2.35;;
19554;SDS011;9924;50.828;6.440;2023-04-03T07:30:53;5.45;;;2.30;;
19554;SDS011;9924;50.828;6.440;2023-04-03T07:33:43;4.90;;;2.30;;
19554;SDS011;9924;50.828;6.440;2023-04-03T07:36:29;8.50;;;2.45;;
19554;SDS011;9924;50.828;6.440;2023-04-03T07:39:16;5.43;;;2.30;;
19554;SDS011;9924;50.828;6.440;2023-04-03T07:42:04;5.55;;;2.05;;
19554;SDS011;9924;50.828;6.440;2023-04-03T07:44:49;4.30;;;2.10;;
19554;SDS011;9924;50.828;6.440;2023-04-03T07:47:35;5.95;;;2.10;;
19554;SDS011;9924;50.828;6.440;2023-04-03T07:50:19;3.22;;;1.85;;
19554;SDS011;9924;50.828;6.440;2023-04-03T07:53:04;3.80;;;2.10;;
19554;SDS011;9924;50.828;6.440;2023-04-03T07:55:49;4.82;;;2.22;;
19554;SDS011;9924;50.828;6.440;2023-04-03T07:58:39;6.78;;;2.03;;
19554;SDS011;9924;50.828;6.440;2023-04-03T08:01:23;5.60;;;2.08;;
19554;SDS011;9924;50.828;6.440;2023-04-03T08:04:07;4.25;;;3.20;;
19554;SDS011;9924;50.828;6.440;2023-04-03T08:06:53;7.28;;;2.28;;
19554;SDS011;9924;50.828;6.440;2023-04-03T08:09:37;3.35;;;2.10;;
19554;SDS011;9924;50.828;6.440;2023-04-03T08:12:22;6.65;;;2.38;;
19554;SDS011;9924;50.828;6.440;2023-04-03T08:15:06;5.38;;;2.17;;
19554;SDS011;9924;50.828;6.440;2023-04-03T08:17:52;5.55;;;2.20;;
19554;SDS011;9924;50.828;6.440;2023-04-03T08:20:37;5.90;;;2.50;;
19554;SDS011;9924;50.828;6.440;2023-04-03T08:23:26;4.72;;;2.10;;
19554;SDS011;9924;50.828;6.440;2023-04-03T08:26:14;6.15;;;1.85;;
19554;SDS011;9924;50.828;6.440;2023-04-03T08:29:00;4.18;;;2.00;;
19554;SDS011;9924;50.828;6.440;2023-04-03T08:31:45;5.85;;;2.00;;
19554;SDS011;9924;50.828;6.440;2023-04-03T08:34:30;10.10;;;3.63;;
19554;SDS011;9924;50.828;6.440;2023-04-03T08:37:18;6.32;;;2.53;;
19554;SDS011;9924;50.828;6.440;2023-04-03T08:40:04;7.03;;;3.70;;
19554;SDS011;9924;50.828;6.440;2023-04-03T08:45:55;7.47;;;3.90;;
19554;SDS011;9924;50.828;6.440;2023-04-03T08:48:41;12.43;;;4.43;;
19554;SDS011;9924;50.828;6.440;2023-04-03T08:51:27;6.32;;;3.25;;
19554;SDS011;9924;50.828;6.440;2023-04-03T08:54:48;12.70;;;6.10;;
19554;SDS011;9924;50.828;6.440;2023-04-03T08:57:36;7.50;;;3.40;;
19554;SDS011;9924;50.828;6.440;2023-04-03T09:00:25;5.95;;;2.15;;
19554;SDS011;9924;50.828;6.440;2023-04-03T09:03:14;4.75;;;1.98;;
19554;SDS011;9924;50.828;6.440;2023-04-03T09:06:06;6.13;;;2.05;;
19554;SDS011;9924;50.828;6.440;2023-04-03T09:12:15;6.07;;;2.92;;
19554;SDS011;9924;50.828;6.440;2023-04-03T09:15:16;5.10;;;1.85;;
19554;SDS011;9924;50.828;6.440;2023-04-03T09:21:07;6.90;;;1.92;;
19554;SDS011;9924;50.828;6.440;2023-04-03T09:24:10;3.78;;;1.17;;
19554;SDS011;9924;50.828;6.440;2023-04-03T09:26:58;4.40;;;1.60;;
19554;SDS011;9924;50.828;6.440;2023-04-03T09:29:53;4.28;;;1.58;;
19554;SDS011;9924;50.828;6.440;2023-04-03T09:32:40;4.20;;;1.58;;
19554;SDS011;9924;50.828;6.440;2023-04-03T09:35:30;10.90;;;4.40;;
19554;SDS011;9924;50.828;6.440;2023-04-03T09:38:20;11.88;;;5.65;;
19554;SDS011;9924;50.828;6.440;2023-04-03T09:41:14;4.82;;;1.60;;
19554;SDS011;9924;50.828;6.440;2023-04-03T09:44:01;4.07;;;1.75;;
19554;SDS011;9924;50.828;6.440;2023-04-03T09:46:45;5.78;;;2.00;;
19554;SDS011;9924;50.828;6.440;2023-04-03T09:49:30;2.95;;;1.42;;
19554;SDS011;9924;50.828;6.440;2023-04-03T09:52:18;4.35;;;1.42;;
19554;SDS011;9924;50.828;6.440;2023-04-03T09:58:24;4.05;;;1.40;;
19554;SDS011;9924;50.828;6.440;2023-04-03T10:04:12;3.83;;;1.17;;
19554;SDS011;9924;50.828;6.440;2023-04-03T10:06:58;5.57;;;1.70;;
19554;SDS011;9924;50.828;6.440;2023-04-03T10:09:44;5.13;;;1.33;;
19554;SDS011;9924;50.828;6.440;2023-04-03T10:12:42;4.10;;;1.20;;
19554;SDS011;9924;50.828;6.440;2023-04-03T10:15:27;4.47;;;1.50;;
19554;SDS011;9924;50.828;6.440;2023-04-03T10:21:15;2.70;;;1.20;;
19554;SDS011;9924;50.828;6.440;2023-04-03T10:26:58;2.78;;;1.40;;
19554;SDS011;9924;50.828;6.440;2023-04-03T10:30:03;3.97;;;1.45;;
19554;SDS011;9924;50.828;6.440;2023-04-03T10:33:05;3.72;;;1.13;;
19554;SDS011;9924;50.828;6.440;2023-04-03T10:42:20;6.03;;;1.45;;
19554;SDS011;9924;50.828;6.440;2023-04-03T10:48:16;3.40;;;1.50;;
19554;SDS011;9924;50.828;6.440;2023-04-03T10:54:32;3.65;;;1.38;;
19554;SDS011;9924;50.828;6.440;2023-04-03T10:57:23;3.58;;;1.17;;
19554;SDS011;9924;50.828;6.440;2023-04-03T11:00:16;5.95;;;1.38;;
19554;SDS011;9924;50.828;6.440;2023-04-03T11:03:11;2.42;;;1.08;;
19554;SDS011;9924;50.828;6.440;2023-04-03T11:05:59;7.05;;;1.50;;
19554;SDS011;9924;50.828;6.440;2023-04-03T11:08:53;2.83;;;1.20;;
19554;SDS011;9924;50.828;6.440;2023-04-03T11:11:47;4.53;;;1.38;;
19554;SDS011;9924;50.828;6.440;2023-04-03T11:14:34;3.55;;;1.27;;
19554;SDS011;9924;50.828;6.440;2023-04-03T11:20:16;3.72;;;1.38;;
19554;SDS011;9924;50.828;6.440;2023-04-03T11:26:21;2.05;;;1.13;;
19554;SDS011;9924;50.828;6.440;2023-04-03T11:29:10;2.70;;;0.98;;
19554;SDS011;9924;50.828;6.440;2023-04-03T11:35:23;2.55;;;1.15;;
19554;SDS011;9924;50.828;6.440;2023-04-03T11:38:10;1.45;;;0.93;;
19554;SDS011;9924;50.828;6.440;2023-04-03T11:41:04;2.88;;;1.40;;
19554;SDS011;9924;50.828;6.440;2023-04-03T11:43:58;3.88;;;1.10;;
19554;SDS011;9924;50.828;6.440;2023-04-03T11:46:49;3.47;;;1.25;;
19554;SDS011;9924;50.828;6.440;2023-04-03T11:55:59;5.25;;;1.10;;
19554;SDS011;9924;50.828;6.440;2023-04-03T12:01:58;2.72;;;1.10;;
19554;SDS011;9924;50.828;6.440;2023-04-03T12:04:43;2.88;;;1.33;;
19554;SDS011;9924;50.828;6.440;2023-04-03T12:11:28;3.28;;;1.42;;
19554;SDS011;9924;50.828;6.440;2023-04-03T12:14:14;2.60;;;0.98;;
19554;SDS011;9924;50.828;6.440;2023-04-03T12:17:00;2.58;;;1.20;;
19554;SDS011;9924;50.828;6.440;2023-04-03T12:19:45;2.40;;;0.93;;
19554;SDS011;9924;50.828;6.440;2023-04-03T12:22:30;2.47;;;1.10;;
19554;SDS011;9924;50.828;6.440;2023-04-03T12:28:35;1.98;;;1.00;;
19554;SDS011;9924;50.828;6.440;2023-04-03T12:31:22;5.38;;;1.20;;
19554;SDS011;9924;50.828;6.440;2023-04-03T12:34:24;2.13;;;1.00;;
19554;SDS011;9924;50.828;6.440;2023-04-03T12:46:36;2.05;;;1.05;;
19554;SDS011;9924;50.828;6.440;2023-04-03T12:55:16;4.70;;;1.40;;
19554;SDS011;9924;50.828;6.440;2023-04-03T12:58:21;2.08;;;0.90;;
19554;SDS011;9924;50.828;6.440;2023-04-03T13:01:13;3.60;;;0.93;;
19554;SDS011;9924;50.828;6.440;2023-04-03T13:04:01;2.53;;;0.95;;
19554;SDS011;9924;50.828;6.440;2023-04-03T13:06:47;3.38;;;1.02;;
19554;SDS011;9924;50.828;6.440;2023-04-03T13:09:32;3.03;;;0.80;;
19554;SDS011;9924;50.828;6.440;2023-04-03T13:12:19;4.47;;;1.33;;
19554;SDS011;9924;50.828;6.440;2023-04-03T13:15:18;2.15;;;0.90;;
19554;SDS011;9924;50.828;6.440;2023-04-03T13:18:20;2.53;;;0.90;;
19554;SDS011;9924;50.828;6.440;2023-04-03T13:21:13;2.33;;;0.88;;
19554;SDS011;9924;50.828;6.440;2023-04-03T13:24:01;4.15;;;0.93;;
19554;SDS011;9924;50.828;6.440;2023-04-03T13:26:46;1.98;;;1.00;;
19554;SDS011;9924;50.828;6.440;2023-04-03T13:29:32;4.10;;;0.88;;
19554;SDS011;9924;50.828;6.440;2023-04-03T13:32:20;3.13;;;1.08;;
19554;SDS011;9924;50.828;6.440;2023-04-03T13:44:32;2.30;;;0.85;;
19554;SDS011;9924;50.828;6.440;2023-04-03T13:47:20;2.42;;;0.93;;
19554;SDS011;9924;50.828;6.440;2023-04-03T13:53:08;1.83;;;0.70;;
19554;SDS011;9924;50.828;6.440;2023-04-03T14:07:34;2.63;;;0.75;;
19554;SDS011;9924;50.828;6.440;2023-04-03T14:10:19;3.17;;;1.08;;
19554;SDS011;9924;50.828;6.440;2023-04-03T14:13:04;1.92;;;0.90;;
19554;SDS011;9924;50.828;6.440;2023-04-03T14:15:48;1.80;;;0.80;;
19554;SDS011;9924;50.828;6.440;2023-04-03T14:18:34;3.97;;;1.15;;
19554;SDS011;9924;50.828;6.440;2023-04-03T14:21:20;1.63;;;0.85;;
19554;SDS011;9924;50.828;6.440;2023-04-03T14:24:04;1.63;;;0.98;;
19554;SDS011;9924;50.828;6.440;2023-04-03T14:26:50;2.60;;;1.00;;
19554;SDS011;9924;50.828;6.440;2023-04-03T14:29:36;1.85;;;1.00;;
19554;SDS011;9924;50.828;6.440;2023-04-03T14:32:21;2.00;;;1.15;;
19554;SDS011;9924;50.828;6.440;2023-04-03T14:35:06;2.83;;;1.02;;
19554;SDS011;9924;50.828;6.440;2023-04-03T14:37:50;6.07;;;1.20;;
19554;SDS011;9924;50.828;6.440;2023-04-03T14:40:35;1.45;;;0.90;;
19554;SDS011;9924;50.828;6.440;2023-04-03T14:43:20;3.92;;;1.00;;
19554;SDS011;9924;50.828;6.440;2023-04-03T14:46:09;3.35;;;1.67;;
19554;SDS011;9924;50.828;6.440;2023-04-03T14:49:15;2.72;;;1.05;;
19554;SDS011;9924;50.828;6.440;2023-04-03T14:52:02;2.17;;;1.10;;
19554;SDS011;9924;50.828;6.440;2023-04-03T14:54:47;3.05;;;1.83;;
19554;SDS011;9924;50.828;6.440;2023-04-03T14:57:31;3.00;;;1.35;;
19554;SDS011;9924;50.828;6.440;2023-04-03T15:00:18;1.33;;;0.80;;
19554;SDS011;9924;50.828;6.440;2023-04-03T15:03:04;1.83;;;0.90;;
19554;SDS011;9924;50.828;6.440;2023-04-03T15:05:48;2.85;;;0.65;;
19554;SDS011;9924;50.828;6.440;2023-04-03T15:08:33;1.85;;;0.80;;
19554;SDS011;9924;50.828;6.440;2023-04-03T15:11:17;3.35;;;0.95;;
19554;SDS011;9924;50.828;6.440;2023-04-03T15:14:01;3.47;;;0.95;;
19554;SDS011;9924;50.828;6.440;2023-04-03T15:16:46;2.25;;;0.93;;
19554;SDS011;9924;50.828;6.440;2023-04-03T15:19:31;1.15;;;0.80;;
19554;SDS011;9924;50.828;6.440;2023-04-03T15:22:21;3.80;;;1.27;;
19554;SDS011;9924;50.828;6.440;2023-04-03T15:25:05;3.92;;;1.52;;
19554;SDS011;9924;50.828;6.440;2023-04-03T15:27:50;3.40;;;1.30;;
19554;SDS011;9924;50.828;6.440;2023-04-03T15:30:35;11.13;;;7.00;;
19554;SDS011;9924;50.828;6.440;2023-04-03T15:33:23;5.40;;;1.15;;
19554;SDS011;9924;50.828;6.440;2023-04-03T15:36:08;4.35;;;1.05;;
19554;SDS011;9924;50.828;6.440;2023-04-03T15:38:53;3.40;;;1.08;;
19554;SDS011;9924;50.828;6.440;2023-04-03T15:41:37;2.85;;;1.40;;
19554;SDS011;9924;50.828;6.440;2023-04-03T15:44:21;2.85;;;1.20;;
19554;SDS011;9924;50.828;6.440;2023-04-03T15:47:06;5.03;;;3.25;;
19554;SDS011;9924;50.828;6.440;2023-04-03T15:49:50;2.58;;;1.10;;
19554;SDS011;9924;50.828;6.440;2023-04-03T15:52:34;3.10;;;1.17;;
19554;SDS011;9924;50.828;6.440;2023-04-03T15:55:20;2.78;;;0.90;;
19554;SDS011;9924;50.828;6.440;2023-04-03T15:58:05;2.92;;;1.05;;
19554;SDS011;9924;50.828;6.440;2023-04-03T16:00:50;3.83;;;0.95;;
19554;SDS011;9924;50.828;6.440;2023-04-03T16:03:35;1.63;;;0.90;;
19554;SDS011;9924;50.828;6.440;2023-04-03T16:06:19;1.90;;;1.08;;
19554;SDS011;9924;50.828;6.440;2023-04-03T16:09:04;1.67;;;1.08;;
19554;SDS011;9924;50.828;6.440;2023-04-03T16:11:50;3.00;;;1.35;;
19554;SDS011;9924;50.828;6.440;2023-04-03T16:14:34;4.30;;;2.17;;
19554;SDS011;9924;50.828;6.440;2023-04-03T16:17:18;3.40;;;1.40;;
19554;SDS011;9924;50.828;6.440;2023-04-03T16:20:03;7.30;;;2.72;;
19554;SDS011;9924;50.828;6.440;2023-04-03T16:22:49;1.67;;;0.82;;
19554;SDS011;9924;50.828;6.440;2023-04-03T16:25:33;3.95;;;1.50;;
19554;SDS011;9924;50.828;6.440;2023-04-03T16:28:18;3.35;;;1.60;;
19554;SDS011;9924;50.828;6.440;2023-04-03T16:31:02;3.10;;;1.42;;
19554;SDS011;9924;50.828;6.440;2023-04-03T16:33:48;3.45;;;1.70;;
19554;SDS011;9924;50.828;6.440;2023-04-03T16:36:33;4.00;;;2.40;;
19554;SDS011;9924;50.828;6.440;2023-04-03T16:39:18;4.07;;;1.45;;
19554;SDS011;9924;50.828;6.440;2023-04-03T16:42:02;3.65;;;1.58;;
19554;SDS011;9924;50.828;6.440;2023-04-03T16:44:47;4.50;;;1.55;;
19554;SDS011;9924;50.828;6.440;2023-04-03T16:47:31;2.95;;;1.17;;
19554;SDS011;9924;50.828;6.440;2023-04-03T16:50:15;3.72;;;1.00;;
19554;SDS011;9924;50.828;6.440;2023-04-03T16:52:59;3.17;;;1.20;;
19554;SDS011;9924;50.828;6.440;2023-04-03T16:55:46;6.10;;;1.05;;
19554;SDS011;9924;50.828;6.440;2023-04-03T16:58:30;3.38;;;1.20;;
19554;SDS011;9924;50.828;6.440;2023-04-03T17:01:16;3.92;;;1.17;;
19554;SDS011;9924;50.828;6.440;2023-04-03T17:04:01;1.90;;;1.15;;
19554;SDS011;9924;50.828;6.440;2023-04-03T17:06:46;5.28;;;2.35;;
19554;SDS011;9924;50.828;6.440;2023-04-03T17:09:31;3.90;;;1.70;;
19554;SDS011;9924;50.828;6.440;2023-04-03T17:12:16;5.22;;;2.10;;
19554;SDS011;9924;50.828;6.440;2023-04-03T17:15:01;3.58;;;2.00;;
19554;SDS011;9924;50.828;6.440;2023-04-03T17:17:46;7.65;;;2.63;;
19554;SDS011;9924;50.828;6.440;2023-04-03T17:20:31;3.53;;;2.10;;
19554;SDS011;9924;50.828;6.440;2023-04-03T17:23:17;4.00;;;1.42;;
19554;SDS011;9924;50.828;6.440;2023-04-03T17:26:02;4.30;;;1.17;;
19554;SDS011;9924;50.828;6.440;2023-04-03T17:28:47;1.70;;;1.25;;
19554;SDS011;9924;50.828;6.440;2023-04-03T17:31:32;5.55;;;1.55;;
19554;SDS011;9924;50.828;6.440;2023-04-03T17:34:17;3.65;;;1.15;;
19554;SDS011;9924;50.828;6.440;2023-04-03T17:37:02;3.97;;;1.27;;
19554;SDS011;9924;50.828;6.440;2023-04-03T17:39:46;2.33;;;1.20;;
19554;SDS011;9924;50.828;6.440;2023-04-03T17:42:30;4.97;;;1.10;;
19554;SDS011;9924;50.828;6.440;2023-04-03T17:45:15;4.05;;;1.40;;
19554;SDS011;9924;50.828;6.440;2023-04-03T17:48:00;5.00;;;1.95;;
19554;SDS011;9924;50.828;6.440;2023-04-03T17:50:44;3.25;;;1.67;;
19554;SDS011;9924;50.828;6.440;2023-04-03T17:53:29;4.43;;;2.45;;
19554;SDS011;9924;50.828;6.440;2023-04-03T17:56:15;9.27;;;2.95;;
19554;SDS011;9924;50.828;6.440;2023-04-03T17:59:01;5.30;;;2.45;;
19554;SDS011;9924;50.828;6.440;2023-04-03T18:01:45;7.20;;;2.60;;
19554;SDS011;9924;50.828;6.440;2023-04-03T18:04:30;5.97;;;2.15;;
19554;SDS011;9924;50.828;6.440;2023-04-03T18:07:14;2.83;;;1.30;;
19554;SDS011;9924;50.828;6.440;2023-04-03T18:09:58;3.70;;;1.23;;
19554;SDS011;9924;50.828;6.440;2023-04-03T18:12:43;2.40;;;1.00;;
19554;SDS011;9924;50.828;6.440;2023-04-03T18:15:27;5.13;;;1.30;;
19554;SDS011;9924;50.828;6.440;2023-04-03T18:18:13;2.38;;;1.40;;
19554;SDS011;9924;50.828;6.440;2023-04-03T18:20:58;6.35;;;1.27;;
19554;SDS011;9924;50.828;6.440;2023-04-03T18:23:48;5.63;;;1.75;;
19554;SDS011;9924;50.828;6.440;2023-04-03T18:26:35;3.08;;;1.67;;
19554;SDS011;9924;50.828;6.440;2023-04-03T18:29:20;2.97;;;1.30;;
19554;SDS011;9924;50.828;6.440;2023-04-03T18:32:05;3.40;;;1.40;;
19554;SDS011;9924;50.828;6.440;2023-04-03T18:34:52;5.35;;;1.67;;
19554;SDS011;9924;50.828;6.440;2023-04-03T18:37:36;6.88;;;2.70;;